Vernal, Utah
Current Conditions -  °F | °C
As of 4:03 AM on Sunday 23 Nov 2014 (Local Time) from KVEL Reporting Station
Overcast Overcast  
Wind Chill: 31°   Ceiling: 10000
Heat Index: 31°   Visibility: 8mi
Dew Point: 30°   Wind: 3mph
Humidity: 96%   Direction: 280°W
Pressure: 29.84"   Gusts: NA
Location:  40.46°N, 109.52°W
Report Text: KVEL 231103Z AUTO 28003KT 8SM SCT017 OVC100 M01/M01 A2984 RMK AO2 T10061011
Loading
Personal Weather Stations






























Interactive Weather Map New forecast layout! Learn more

10-Day Weather Forecast

Advertisements
Track Severe Weather on mobile